createdAt,value
2019-05-15T00:00:59.348Z,1.20
2019-05-15T00:01:59.326Z,1.20
2019-05-15T00:03:29.784Z,1.30
2019-05-15T00:04:29.771Z,1.30
2019-05-15T00:06:00.299Z,1.00
2019-05-15T00:07:00.286Z,1.30
2019-05-15T00:08:30.732Z,1.00
2019-05-15T00:09:30.728Z,1.30
2019-05-15T00:11:01.193Z,1.00
2019-05-15T00:12:01.173Z,1.70
2019-05-15T00:13:31.631Z,1.60
2019-05-15T00:14:31.618Z,1.60
2019-05-15T00:16:02.092Z,1.70
2019-05-15T00:17:02.065Z,1.30
2019-05-15T00:18:32.524Z,1.90
2019-05-15T00:19:32.541Z,1.80
2019-05-15T00:21:02.986Z,0.60
2019-05-15T00:22:02.956Z,1.00
2019-05-15T00:23:33.419Z,1.60
2019-05-15T00:24:33.412Z,1.20
2019-05-15T00:26:03.883Z,1.30
2019-05-15T00:27:03.855Z,1.20
2019-05-15T00:28:03.843Z,1.60
2019-05-15T00:29:12.861Z,1.50
2019-05-15T00:30:04.820Z,0.70
2019-05-15T00:31:03.818Z,1.50
2019-05-15T00:32:03.800Z,1.30
2019-05-15T00:33:03.791Z,1.40
2019-05-15T00:34:03.802Z,1.30
2019-05-15T00:35:03.768Z,1.10
2019-05-15T00:36:03.757Z,1.30
2019-05-15T00:37:03.746Z,1.30
2019-05-15T00:38:03.740Z,1.30
2019-05-15T00:39:03.726Z,1.70
2019-05-15T00:40:03.713Z,1.50
2019-05-15T00:41:03.703Z,1.30
2019-05-15T00:42:03.699Z,1.10
2019-05-15T00:43:03.686Z,1.40
2019-05-15T00:44:03.672Z,1.40
2019-05-15T00:45:03.660Z,1.30
2019-05-15T00:46:03.650Z,1.30
2019-05-15T00:47:03.651Z,0.90
2019-05-15T00:48:03.629Z,1.00
2019-05-15T00:49:03.619Z,1.10
2019-05-15T00:50:03.609Z,1.30
2019-05-15T00:51:03.599Z,1.10
2019-05-15T00:52:03.594Z,1.20
2019-05-15T00:53:03.580Z,1.00
2019-05-15T00:54:03.564Z,1.20
2019-05-15T00:55:03.557Z,1.20
2019-05-15T00:56:03.543Z,1.10
2019-05-15T00:57:03.532Z,1.40
2019-05-15T00:58:03.522Z,1.20
2019-05-15T00:59:03.515Z,1.40
2019-05-15T01:00:03.500Z,1.00
2019-05-15T01:01:03.491Z,1.30
2019-05-15T01:02:03.480Z,1.50
2019-05-15T01:03:03.468Z,1.30
2019-05-15T01:04:03.457Z,0.90
2019-05-15T01:05:03.446Z,0.90
2019-05-15T01:06:03.438Z,1.30
2019-05-15T01:07:03.423Z,1.30
2019-05-15T01:08:03.413Z,1.00
2019-05-15T01:09:03.404Z,1.20
2019-05-15T01:10:03.402Z,1.20
2019-05-15T01:11:03.381Z,1.30
2019-05-15T01:12:03.369Z,1.20
2019-05-15T01:13:03.358Z,1.10
2019-05-15T01:14:03.351Z,1.30
2019-05-15T01:15:03.335Z,1.10
2019-05-15T01:16:03.326Z,1.30
2019-05-15T01:17:03.315Z,1.30
2019-05-15T01:18:03.306Z,1.40
2019-05-15T01:19:03.293Z,1.30
2019-05-15T01:20:03.286Z,1.30
2019-05-15T01:21:03.287Z,1.20
2019-05-15T01:22:03.263Z,0.70
2019-05-15T01:23:03.256Z,1.40
2019-05-15T01:24:03.240Z,1.00
2019-05-15T01:25:03.229Z,1.20
2019-05-15T01:26:03.219Z,0.70
2019-05-15T01:27:03.208Z,1.10
2019-05-15T01:28:03.198Z,1.50
2019-05-15T01:29:03.209Z,1.10
2019-05-15T01:30:03.185Z,1.20
2019-05-15T01:31:03.168Z,1.00
2019-05-15T01:32:03.154Z,1.30
2019-05-15T01:33:03.143Z,1.50
2019-05-15T01:34:03.133Z,2.10
2019-05-15T01:35:03.124Z,1.20
2019-05-15T01:36:03.112Z,1.30
2019-05-15T01:37:03.103Z,1.30
2019-05-15T01:38:03.089Z,0.90
2019-05-15T01:39:03.078Z,1.30
2019-05-15T01:40:03.068Z,1.30
2019-05-15T01:41:03.058Z,1.70
2019-05-15T01:42:03.046Z,1.30
2019-05-15T01:43:03.036Z,1.10
2019-05-15T01:44:03.025Z,1.50
2019-05-15T01:45:03.014Z,1.40
2019-05-15T01:46:03.006Z,1.00
2019-05-15T01:47:02.992Z,0.90
2019-05-15T01:48:03.003Z,1.20
2019-05-15T01:49:02.975Z,1.20
2019-05-15T01:50:02.964Z,1.10
2019-05-15T01:51:02.950Z,1.10
2019-05-15T01:52:02.938Z,1.10
2019-05-15T01:53:02.928Z,1.20
2019-05-15T01:54:02.919Z,1.10
2019-05-15T01:55:02.909Z,1.30
2019-05-15T01:56:02.897Z,1.00
2019-05-15T01:57:02.901Z,1.00
2019-05-15T01:58:02.879Z,1.20
2019-05-15T01:59:02.868Z,1.10
2019-05-15T02:00:02.860Z,1.20
2019-05-15T02:01:02.854Z,0.90
2019-05-15T02:02:02.832Z,1.10
2019-05-15T02:03:02.822Z,1.20
2019-05-15T02:04:02.812Z,0.90
2019-05-15T02:05:02.802Z,1.10
2019-05-15T02:06:02.790Z,1.30
2019-05-15T02:07:02.778Z,1.00
2019-05-15T02:08:02.769Z,1.90
2019-05-15T02:09:02.757Z,1.30
2019-05-15T02:10:02.752Z,1.00
2019-05-15T02:11:02.736Z,0.90
2019-05-15T02:12:02.725Z,1.10
2019-05-15T02:13:02.714Z,0.80
2019-05-15T02:14:02.705Z,0.90
2019-05-15T02:15:02.711Z,0.90
2019-05-15T02:16:02.691Z,0.90
2019-05-15T02:17:02.672Z,1.20
2019-05-15T02:18:02.661Z,1.30
2019-05-15T02:19:02.650Z,1.00
2019-05-15T02:20:02.641Z,0.90
2019-05-15T02:21:02.634Z,1.60
2019-05-15T02:22:02.617Z,1.50
2019-05-15T02:23:02.611Z,1.20
2019-05-15T02:24:02.612Z,1.40
2019-05-15T02:25:02.588Z,1.30
2019-05-15T02:26:02.575Z,1.20
2019-05-15T02:27:02.564Z,1.20
2019-05-15T02:28:02.552Z,1.10
2019-05-15T02:29:02.542Z,0.90
2019-05-15T02:30:18.327Z,1.40
2019-05-15T02:31:03.519Z,1.60
2019-05-15T02:32:02.513Z,1.40
2019-05-15T02:33:02.499Z,1.40
2019-05-15T02:34:02.513Z,1.30
2019-05-15T02:35:02.475Z,1.50
2019-05-15T02:36:02.466Z,1.00
2019-05-15T02:37:02.463Z,1.10
2019-05-15T02:38:02.478Z,1.40
2019-05-15T02:39:02.440Z,0.90
2019-05-15T02:40:02.427Z,1.50
2019-05-15T02:41:02.415Z,1.10
2019-05-15T02:42:02.429Z,1.30
2019-05-15T02:43:02.397Z,1.60
2019-05-15T02:44:02.379Z,1.30
2019-05-15T02:45:02.377Z,1.50
2019-05-15T02:46:02.371Z,1.30
2019-05-15T02:47:02.362Z,1.00
2019-05-15T02:48:02.341Z,1.70
2019-05-15T02:49:02.335Z,1.30
2019-05-15T02:50:02.313Z,0.90
2019-05-15T02:51:02.308Z,1.20
2019-05-15T02:52:02.294Z,1.10
2019-05-15T02:53:02.289Z,1.30
2019-05-15T02:54:02.273Z,1.00
2019-05-15T02:55:02.264Z,1.10
2019-05-15T02:56:02.261Z,1.20
2019-05-15T02:57:02.264Z,1.50
2019-05-15T02:58:02.252Z,1.30
2019-05-15T02:59:02.229Z,0.80
2019-05-15T03:00:02.208Z,1.10
2019-05-15T03:01:02.198Z,0.90
2019-05-15T03:02:02.188Z,0.90
2019-05-15T03:03:02.189Z,0.90
2019-05-15T03:04:02.186Z,1.10
2019-05-15T03:05:02.165Z,1.20
2019-05-15T03:06:02.155Z,1.30
2019-05-15T03:07:02.134Z,1.00
2019-05-15T03:08:02.124Z,1.60
2019-05-15T03:09:02.113Z,1.10
2019-05-15T03:10:02.102Z,0.90
2019-05-15T03:11:02.100Z,1.00
2019-05-15T03:12:02.080Z,1.40
2019-05-15T03:13:02.080Z,1.30
2019-05-15T03:14:02.061Z,0.90
2019-05-15T03:15:02.050Z,1.00
2019-05-15T03:16:02.043Z,1.00
2019-05-15T03:17:02.047Z,1.40
2019-05-15T03:18:02.017Z,1.20
2019-05-15T03:19:02.010Z,0.80
2019-05-15T03:20:02.015Z,1.10
2019-05-15T03:21:01.988Z,1.00
2019-05-15T03:22:01.994Z,1.20
2019-05-15T03:23:01.970Z,1.20
2019-05-15T03:24:01.955Z,0.90
2019-05-15T03:25:01.944Z,1.20
2019-05-15T03:26:04.258Z,1.30
2019-05-15T03:27:01.921Z,1.30
2019-05-15T03:28:01.909Z,1.20
2019-05-15T03:29:01.898Z,1.00
2019-05-15T03:30:01.893Z,1.10
2019-05-15T03:31:22.487Z,1.10
2019-05-15T03:32:18.022Z,1.10
2019-05-15T03:33:10.055Z,1.30
2019-05-15T03:34:03.979Z,1.00
2019-05-15T03:35:05.059Z,1.30
2019-05-15T03:36:03.509Z,1.00
2019-05-15T03:37:03.575Z,1.20
2019-05-15T03:38:01.812Z,1.30
2019-05-15T03:39:01.792Z,1.00
2019-05-15T03:40:01.783Z,1.10
2019-05-15T03:41:01.773Z,1.00
2019-05-15T03:42:01.767Z,1.40
2019-05-15T03:43:01.755Z,1.30
2019-05-15T03:44:01.766Z,0.90
2019-05-15T03:45:01.728Z,1.10
2019-05-15T03:46:02.073Z,1.00
2019-05-15T03:47:01.706Z,1.20
2019-05-15T03:48:01.705Z,1.20
2019-05-15T03:49:01.685Z,0.90
2019-05-15T03:50:01.672Z,1.00
2019-05-15T03:51:01.662Z,1.10
2019-05-15T03:52:01.652Z,1.20
2019-05-15T03:53:01.642Z,0.90
2019-05-15T03:54:01.630Z,0.70
2019-05-15T03:55:01.633Z,1.40
2019-05-15T03:56:01.612Z,1.00
2019-05-15T03:57:01.600Z,1.20
2019-05-15T03:58:01.588Z,1.90
2019-05-15T03:59:01.581Z,1.40
2019-05-15T04:00:01.566Z,1.50
2019-05-15T04:01:01.562Z,1.20
2019-05-15T04:02:01.542Z,0.90
2019-05-15T04:03:01.535Z,1.10
2019-05-15T04:04:01.521Z,1.60
2019-05-15T04:05:02.369Z,1.20
2019-05-15T04:06:01.513Z,1.10
2019-05-15T04:07:01.488Z,1.60
2019-05-15T04:08:01.476Z,0.90
2019-05-15T04:09:01.465Z,1.50
2019-05-15T04:10:01.469Z,1.40
2019-05-15T04:11:01.444Z,1.10
2019-05-15T04:12:01.433Z,1.10
2019-05-15T04:13:01.424Z,1.40
2019-05-15T04:14:01.425Z,1.80
2019-05-15T04:15:01.398Z,1.10
2019-05-15T04:16:01.388Z,1.10
2019-05-15T04:17:01.389Z,1.20
2019-05-15T04:18:01.369Z,1.20
2019-05-15T04:19:01.357Z,1.40
2019-05-15T04:20:01.350Z,1.20
2019-05-15T04:21:01.334Z,1.30
2019-05-15T04:22:01.327Z,1.60
2019-05-15T04:23:01.314Z,1.50
2019-05-15T04:24:01.301Z,1.30
2019-05-15T04:25:01.289Z,1.30
2019-05-15T04:26:01.280Z,1.90
2019-05-15T04:27:01.269Z,1.10
2019-05-15T04:28:01.267Z,1.10
2019-05-15T04:29:01.263Z,0.90
2019-05-15T04:30:01.238Z,1.20
2019-05-15T04:31:01.227Z,1.10
2019-05-15T04:32:05.770Z,1.30
2019-05-15T04:33:02.207Z,1.50
2019-05-15T04:34:01.194Z,1.10
2019-05-15T04:35:01.182Z,1.20
2019-05-15T04:36:01.201Z,1.50
2019-05-15T04:37:01.162Z,0.90
2019-05-15T04:38:01.151Z,1.20
2019-05-15T04:39:01.145Z,1.20
2019-05-15T04:40:01.185Z,0.90
2019-05-15T04:41:01.122Z,1.10
2019-05-15T04:42:01.123Z,1.20
2019-05-15T04:43:01.101Z,1.20
2019-05-15T04:44:01.089Z,1.30
2019-05-15T04:45:01.077Z,1.70
2019-05-15T04:46:02.936Z,1.10
2019-05-15T04:47:01.113Z,1.30
2019-05-15T04:48:01.047Z,1.40
2019-05-15T04:49:01.032Z,0.80
2019-05-15T04:50:01.026Z,1.10
2019-05-15T04:51:01.010Z,0.80
2019-05-15T04:52:03.712Z,0.80
2019-05-15T04:53:00.990Z,0.90
2019-05-15T04:54:00.987Z,1.10
2019-05-15T04:55:00.969Z,1.00
2019-05-15T04:56:00.957Z,1.00
2019-05-15T04:57:00.945Z,0.80
2019-05-15T04:58:00.933Z,1.50
2019-05-15T04:59:00.924Z,1.20
2019-05-15T05:00:00.920Z,0.80
2019-05-15T05:01:00.904Z,1.00
2019-05-15T05:02:16.268Z,1.10
2019-05-15T05:03:01.885Z,1.90
2019-05-15T05:04:00.874Z,1.60
2019-05-15T05:05:00.859Z,0.90
2019-05-15T05:06:00.873Z,1.30
2019-05-15T05:07:00.838Z,1.30
2019-05-15T05:08:00.829Z,1.40
2019-05-15T05:09:00.816Z,1.10
2019-05-15T05:10:00.809Z,1.60
2019-05-15T05:11:00.796Z,1.50
2019-05-15T05:12:00.787Z,1.50
2019-05-15T05:13:00.773Z,1.70
2019-05-15T05:14:00.763Z,1.30
2019-05-15T05:15:00.773Z,1.50
2019-05-15T05:16:00.747Z,1.40
2019-05-15T05:17:00.805Z,1.20
2019-05-15T05:18:00.732Z,1.10
2019-05-15T05:19:00.712Z,1.70
2019-05-15T05:20:00.696Z,1.80
2019-05-15T05:21:00.685Z,1.60
2019-05-15T05:22:00.676Z,1.40
2019-05-15T05:23:00.664Z,2.10
2019-05-15T05:24:00.653Z,1.60
2019-05-15T05:25:00.643Z,1.70
2019-05-15T05:26:00.640Z,1.30
2019-05-15T05:27:00.625Z,1.70
2019-05-15T05:28:00.628Z,1.40
2019-05-15T05:29:01.346Z,1.60
2019-05-15T05:30:00.588Z,1.80
2019-05-15T05:31:00.578Z,1.90
2019-05-15T05:32:00.569Z,1.60
2019-05-15T05:33:00.560Z,1.30
2019-05-15T05:34:00.548Z,1.30
2019-05-15T05:35:00.535Z,1.20
2019-05-15T05:36:00.524Z,1.20
2019-05-15T05:37:00.515Z,1.50
2019-05-15T05:38:00.506Z,1.30
2019-05-15T05:39:00.501Z,1.10
2019-05-15T05:40:00.483Z,1.10
2019-05-15T05:41:00.471Z,1.10
2019-05-15T05:42:00.460Z,1.20
2019-05-15T05:43:00.448Z,1.50
2019-05-15T05:44:00.438Z,1.10
2019-05-15T05:45:00.428Z,1.50
2019-05-15T05:46:00.421Z,1.70
2019-05-15T05:47:00.408Z,1.70
2019-05-15T05:48:00.395Z,1.20
2019-05-15T05:49:00.385Z,1.50
2019-05-15T05:50:00.375Z,1.10
2019-05-15T05:51:00.380Z,1.20
2019-05-15T05:52:00.358Z,1.10
2019-05-15T05:53:00.362Z,1.20
2019-05-15T05:54:00.331Z,1.30
2019-05-15T05:55:00.320Z,1.60
2019-05-15T05:56:00.312Z,1.80
2019-05-15T05:57:00.304Z,1.70
2019-05-15T05:58:00.288Z,2.70
2019-05-15T05:59:00.303Z,2.80
2019-05-15T06:00:00.268Z,2.90
2019-05-15T06:01:00.269Z,3.50
2019-05-15T06:02:00.244Z,3.40
2019-05-15T06:03:00.242Z,2.60
2019-05-15T06:04:00.224Z,1.90
2019-05-15T06:05:00.213Z,3.30
2019-05-15T06:06:00.200Z,2.10
2019-05-15T06:07:07.097Z,2.60
2019-05-15T06:08:01.230Z,2.80
2019-05-15T06:09:00.180Z,2.70
2019-05-15T06:10:00.157Z,2.80
2019-05-15T06:11:00.202Z,2.80
2019-05-15T06:12:00.136Z,3.40
2019-05-15T06:13:00.127Z,3.20
2019-05-15T06:14:00.114Z,2.40
2019-05-15T06:15:00.105Z,3.40
2019-05-15T06:16:00.091Z,2.90
2019-05-15T06:17:00.083Z,3.10
2019-05-15T06:18:00.070Z,3.10
2019-05-15T06:19:00.061Z,2.60
2019-05-15T06:20:00.053Z,3.30
2019-05-15T06:21:00.038Z,3.30
2019-05-15T06:22:00.970Z,2.70
2019-05-15T06:23:00.015Z,3.30
2019-05-15T06:24:04.804Z,2.70
2019-05-15T06:25:04.816Z,2.70
2019-05-15T06:25:59.983Z,3.20
2019-05-15T06:26:59.972Z,2.60
2019-05-15T06:27:59.962Z,2.60
2019-05-15T06:28:59.951Z,2.90
2019-05-15T06:29:59.939Z,2.40
2019-05-15T06:31:00.743Z,2.00
2019-05-15T06:31:59.918Z,2.60
2019-05-15T06:33:09.035Z,2.50
2019-05-15T06:34:00.896Z,2.70
2019-05-15T06:34:59.886Z,3.00
2019-05-15T06:35:59.879Z,2.80
2019-05-15T06:36:59.891Z,2.10
2019-05-15T06:37:59.853Z,1.90
2019-05-15T06:38:59.846Z,2.70
2019-05-15T06:39:59.832Z,2.50
2019-05-15T06:40:59.822Z,2.70
2019-05-15T06:41:59.812Z,2.40
2019-05-15T06:42:59.801Z,2.30
2019-05-15T06:43:59.790Z,2.70
2019-05-15T06:44:59.781Z,1.70
2019-05-15T06:45:59.769Z,2.60
2019-05-15T06:46:59.764Z,1.90
2019-05-15T06:48:01.497Z,2.20
2019-05-15T06:48:59.735Z,1.50
2019-05-15T06:49:59.725Z,2.20
2019-05-15T06:50:59.716Z,1.90
2019-05-15T06:51:59.705Z,2.20
2019-05-15T06:52:59.694Z,2.00
2019-05-15T06:53:59.683Z,2.00
2019-05-15T06:54:59.675Z,2.00
2019-05-15T06:55:59.663Z,2.00
2019-05-15T06:56:59.654Z,1.40
2019-05-15T06:57:59.647Z,1.80
2019-05-15T06:58:59.629Z,1.60
2019-05-15T06:59:59.619Z,1.70
2019-05-15T07:00:59.610Z,1.50
2019-05-15T07:01:59.612Z,1.90
2019-05-15T07:02:59.586Z,1.90
2019-05-15T07:03:59.575Z,1.70
2019-05-15T07:04:59.564Z,1.80
2019-05-15T07:06:00.072Z,1.70
2019-05-15T07:06:59.541Z,2.10
2019-05-15T07:07:59.531Z,2.00
2019-05-15T07:08:59.523Z,1.40
2019-05-15T07:09:59.518Z,1.70
2019-05-15T07:10:59.507Z,1.80
2019-05-15T07:11:59.485Z,1.50
2019-05-15T07:12:59.479Z,1.60
2019-05-15T07:13:59.468Z,1.20
2019-05-15T07:14:59.453Z,1.60
2019-05-15T07:15:59.443Z,0.70
2019-05-15T07:16:59.439Z,1.30
2019-05-15T07:17:59.420Z,1.30
2019-05-15T07:18:59.410Z,0.90
2019-05-15T07:19:59.492Z,1.00
2019-05-15T07:20:59.387Z,0.60
2019-05-15T07:21:59.376Z,0.70
2019-05-15T07:22:59.373Z,0.60
2019-05-15T07:23:59.355Z,1.20
2019-05-15T07:24:59.344Z,0.90
2019-05-15T07:25:59.332Z,0.60
2019-05-15T07:26:59.377Z,1.40
2019-05-15T07:27:59.454Z,0.70
2019-05-15T07:28:59.712Z,1.20
2019-05-15T07:29:59.566Z,0.80
2019-05-15T07:30:59.289Z,0.80
2019-05-15T07:31:59.268Z,0.80
2019-05-15T07:32:59.276Z,0.70
2019-05-15T07:33:59.962Z,0.60
2019-05-15T07:34:59.234Z,0.50
2019-05-15T07:35:59.271Z,0.80
2019-05-15T07:36:59.368Z,0.80
2019-05-15T07:37:59.200Z,0.90
2019-05-15T07:38:59.191Z,0.50
2019-05-15T07:39:59.290Z,0.90
2019-05-15T07:41:03.423Z,0.90
2019-05-15T07:42:00.157Z,0.70
2019-05-15T07:42:59.147Z,0.80
2019-05-15T07:43:59.137Z,0.70
2019-05-15T07:44:59.140Z,0.70
2019-05-15T07:45:59.246Z,1.10
2019-05-15T07:46:59.105Z,0.60
2019-05-15T07:47:59.111Z,0.70
2019-05-15T07:48:59.083Z,0.50
2019-05-15T07:49:59.249Z,0.90
2019-05-15T07:50:59.582Z,0.90
2019-05-15T07:51:59.322Z,0.70
2019-05-15T07:52:59.174Z,1.00
2019-05-15T07:54:02.239Z,0.70
2019-05-15T07:54:59.024Z,0.90
2019-05-15T07:56:01.109Z,0.90
2019-05-15T07:56:58.997Z,0.80
2019-05-15T07:57:59.266Z,0.60
2019-05-15T07:58:58.975Z,0.50
2019-05-15T07:59:58.970Z,0.80
2019-05-15T08:00:59.183Z,0.70
2019-05-15T08:01:58.990Z,0.80
2019-05-15T08:02:58.932Z,0.70
2019-05-15T08:04:14.517Z,0.60
2019-05-15T08:04:59.910Z,0.60
2019-05-15T08:06:02.798Z,0.60
2019-05-15T08:06:59.280Z,0.50
2019-05-15T08:07:58.880Z,0.60
2019-05-15T08:08:59.327Z,0.60
2019-05-15T08:09:59.437Z,0.80
2019-05-15T08:10:58.869Z,0.80
2019-05-15T08:12:01.305Z,0.50
2019-05-15T08:12:58.826Z,0.50
2019-05-15T08:13:58.870Z,0.50
2019-05-15T08:14:58.804Z,0.60
2019-05-15T08:15:58.792Z,0.40
2019-05-15T08:16:59.347Z,0.40
2019-05-15T08:18:08.180Z,0.50
2019-05-15T08:18:59.759Z,0.60
2019-05-15T08:19:58.756Z,0.60
2019-05-15T08:20:58.859Z,0.50
2019-05-15T08:21:58.747Z,0.40
2019-05-15T08:22:58.718Z,0.70
2019-05-15T08:23:59.159Z,0.70
2019-05-15T08:24:59.232Z,0.70
2019-05-15T08:25:58.684Z,0.50
2019-05-15T08:26:58.675Z,0.80
2019-05-15T08:27:59.297Z,0.80
2019-05-15T08:28:58.652Z,0.90
2019-05-15T08:29:58.638Z,0.70
2019-05-15T08:30:58.838Z,0.50
2019-05-15T08:31:59.112Z,0.60
2019-05-15T08:32:58.955Z,0.60
2019-05-15T08:34:12.321Z,0.50
2019-05-15T08:34:59.581Z,0.70
2019-05-15T08:35:58.969Z,0.60
2019-05-15T08:36:59.129Z,0.60
2019-05-15T08:37:58.549Z,1.20
2019-05-15T08:38:59.175Z,0.70
2019-05-15T08:39:59.652Z,0.90
2019-05-15T08:40:59.191Z,0.50
2019-05-15T08:41:58.615Z,0.60
2019-05-15T08:43:02.071Z,0.60
2019-05-15T08:43:58.483Z,0.40
2019-05-15T08:44:58.483Z,0.60
2019-05-15T08:45:58.764Z,0.30
2019-05-15T08:46:59.138Z,0.40
2019-05-15T08:47:58.704Z,0.50
2019-05-15T08:48:58.437Z,0.50
2019-05-15T08:49:58.419Z,0.60
2019-05-15T08:50:58.409Z,0.50
2019-05-15T08:51:58.565Z,0.60
2019-05-15T08:52:58.386Z,1.10
2019-05-15T08:53:58.374Z,0.50
2019-05-15T08:54:59.022Z,0.30
2019-05-15T08:55:58.913Z,0.60
2019-05-15T08:56:59.223Z,0.40
2019-05-15T08:58:06.751Z,0.30
2019-05-15T08:58:59.321Z,0.70
2019-05-15T08:59:58.411Z,0.40
2019-05-15T09:00:58.911Z,0.60
2019-05-15T09:01:58.338Z,0.40
2019-05-15T09:02:58.328Z,0.70
2019-05-15T09:03:58.375Z,0.40
2019-05-15T09:04:58.277Z,0.40
2019-05-15T09:05:59.062Z,0.50
2019-05-15T09:07:01.297Z,0.60
2019-05-15T09:07:58.217Z,0.50
2019-05-15T09:08:58.660Z,0.40
2019-05-15T09:09:58.195Z,0.50
2019-05-15T09:10:58.718Z,0.30
2019-05-15T09:11:58.577Z,0.30
2019-05-15T09:12:58.715Z,0.30
2019-05-15T09:13:59.532Z,0.60
2019-05-15T09:14:58.281Z,0.50
2019-05-15T09:15:58.923Z,0.50
2019-05-15T09:16:58.377Z,0.40
2019-05-15T09:18:11.651Z,0.40
2019-05-15T09:18:59.713Z,0.40
2019-05-15T09:19:58.805Z,0.50
2019-05-15T09:20:59.399Z,0.30
2019-05-15T09:21:58.626Z,0.30
2019-05-15T09:22:58.352Z,0.40
2019-05-15T09:23:58.938Z,0.60
2019-05-15T09:24:58.935Z,0.40
2019-05-15T09:25:58.061Z,0.50
2019-05-15T09:26:59.518Z,0.60
2019-05-15T09:27:58.050Z,0.50
2019-05-15T09:28:58.523Z,0.40
2019-05-15T09:29:59.199Z,0.40
2019-05-15T09:30:59.079Z,0.50
2019-05-15T09:31:58.852Z,0.40
2019-05-15T09:32:58.852Z,0.30
2019-05-15T09:33:58.546Z,0.80
2019-05-15T09:34:59.223Z,0.50
2019-05-15T09:35:58.445Z,0.50
2019-05-15T09:36:59.935Z,0.30
2019-05-15T09:37:58.393Z,0.40
2019-05-15T09:38:58.490Z,0.40
2019-05-15T09:39:58.394Z,0.30
2019-05-15T09:40:58.493Z,0.50
2019-05-15T09:41:58.008Z,0.40
2019-05-15T09:42:57.931Z,0.30
2019-05-15T09:43:57.997Z,0.30
2019-05-15T09:44:58.311Z,0.40
2019-05-15T09:45:58.393Z,0.50
2019-05-15T09:46:58.494Z,0.50
2019-05-15T09:47:58.799Z,0.40
2019-05-15T09:48:59.281Z,0.40
2019-05-15T09:49:58.935Z,0.30
2019-05-15T09:50:58.718Z,0.40
2019-05-15T09:51:58.624Z,0.50
2019-05-15T09:52:58.783Z,0.30
2019-05-15T09:53:59.631Z,0.40
2019-05-15T09:54:59.295Z,0.70
2019-05-15T09:56:00.052Z,0.50
2019-05-15T09:56:58.542Z,0.90
2019-05-15T09:57:59.028Z,0.40
2019-05-15T09:58:58.246Z,0.30
2019-05-15T09:59:58.658Z,0.30
2019-05-15T10:00:57.648Z,0.20
2019-05-15T10:01:58.897Z,0.60
2019-05-15T10:02:57.627Z,0.50
2019-05-15T10:03:57.617Z,0.30
2019-05-15T10:05:06.347Z,0.40
2019-05-15T10:05:58.592Z,0.50
2019-05-15T10:06:57.583Z,0.40
2019-05-15T10:07:57.577Z,0.60
2019-05-15T10:08:57.562Z,0.40
2019-05-15T10:09:57.551Z,0.40
2019-05-15T10:10:59.360Z,0.50
2019-05-15T10:11:57.538Z,0.30
2019-05-15T10:12:59.431Z,0.50
2019-05-15T10:13:58.547Z,0.60
2019-05-15T10:14:59.225Z,0.30
2019-05-15T10:15:58.560Z,0.30
2019-05-15T10:16:58.348Z,0.40
2019-05-15T10:17:59.703Z,0.40
2019-05-15T10:18:58.148Z,0.50
2019-05-15T10:19:58.290Z,0.50
2019-05-15T10:20:58.129Z,0.40
2019-05-15T10:21:59.468Z,0.30
2019-05-15T10:22:59.012Z,0.30
2019-05-15T10:23:59.078Z,0.40
2019-05-15T10:24:58.731Z,0.40
2019-05-15T10:25:58.885Z,0.40
2019-05-15T10:26:58.024Z,0.50
2019-05-15T10:27:57.951Z,0.40
2019-05-15T10:28:58.445Z,0.40
2019-05-15T10:29:58.809Z,0.60
2019-05-15T10:31:00.090Z,0.30
2019-05-15T10:31:57.316Z,0.30
2019-05-15T10:32:57.306Z,0.30
2019-05-15T10:33:58.316Z,0.40
2019-05-15T10:34:58.621Z,0.50
2019-05-15T10:35:59.031Z,0.60
2019-05-15T10:36:58.914Z,0.60
2019-05-15T10:37:59.217Z,0.30
2019-05-15T10:38:59.263Z,0.20
2019-05-15T10:39:58.429Z,0.40
2019-05-15T10:41:08.157Z,0.30
2019-05-15T10:41:58.214Z,0.30
2019-05-15T10:42:59.408Z,0.40
2019-05-15T10:44:00.116Z,0.40
2019-05-15T10:44:58.856Z,0.40
2019-05-15T10:45:58.761Z,0.30
2019-05-15T10:46:58.499Z,0.30
2019-05-15T10:47:58.528Z,0.40
2019-05-15T10:48:58.560Z,0.50
2019-05-15T10:49:57.121Z,0.60
2019-05-15T10:51:01.906Z,0.40
2019-05-15T10:51:58.134Z,0.50
2019-05-15T10:52:57.095Z,0.30
2019-05-15T10:53:57.078Z,0.40
2019-05-15T10:54:58.118Z,0.40
2019-05-15T10:55:59.653Z,0.60
2019-05-15T10:57:00.505Z,0.50
2019-05-15T10:57:57.062Z,0.40
2019-05-15T10:58:58.873Z,0.40
2019-05-15T10:59:58.434Z,0.30
2019-05-15T11:01:02.028Z,0.50
2019-05-15T11:01:59.081Z,0.50
2019-05-15T11:02:57.990Z,0.40
2019-05-15T11:03:58.842Z,0.20
2019-05-15T11:04:57.837Z,0.30
2019-05-15T11:05:57.941Z,0.40
2019-05-15T11:06:58.082Z,0.40
2019-05-15T11:07:58.865Z,0.40
2019-05-15T11:08:58.386Z,0.40
2019-05-15T11:09:58.198Z,0.40
2019-05-15T11:10:58.540Z,0.20
2019-05-15T11:11:58.315Z,0.30
2019-05-15T11:12:58.124Z,0.70
2019-05-15T11:14:00.221Z,0.40
2019-05-15T11:14:56.856Z,0.40
2019-05-15T11:15:56.854Z,0.70
2019-05-15T11:16:58.951Z,0.30
2019-05-15T11:17:58.471Z,0.50
2019-05-15T11:18:58.551Z,0.50
2019-05-15T11:19:58.636Z,0.40
2019-05-15T11:20:58.466Z,0.70
2019-05-15T11:21:58.347Z,0.90
2019-05-15T11:22:59.056Z,0.80
2019-05-15T11:23:59.073Z,1.00
2019-05-15T11:24:59.297Z,1.30
2019-05-15T11:25:58.130Z,1.20
2019-05-15T11:26:59.289Z,1.70
2019-05-15T11:27:58.883Z,1.60
2019-05-15T11:28:58.675Z,1.90
2019-05-15T11:29:58.547Z,1.50
2019-05-15T11:30:59.308Z,1.70
2019-05-15T11:31:58.096Z,1.60
2019-05-15T11:32:58.712Z,1.80
2019-05-15T11:33:58.524Z,1.50
2019-05-15T11:34:58.292Z,2.10
2019-05-15T11:36:02.297Z,2.30
2019-05-15T11:36:59.357Z,2.00
2019-05-15T11:37:57.249Z,2.30
2019-05-15T11:38:56.595Z,1.70
2019-05-15T11:39:58.787Z,2.00
2019-05-15T11:40:56.574Z,1.80
2019-05-15T11:41:56.567Z,1.90
2019-05-15T11:42:56.560Z,1.60
2019-05-15T11:43:56.544Z,2.20
2019-05-15T11:44:58.482Z,2.40
2019-05-15T11:45:58.787Z,1.70
2019-05-15T11:46:58.648Z,1.70
2019-05-15T11:47:56.504Z,1.40
2019-05-15T11:48:58.773Z,1.80
2019-05-15T11:49:58.479Z,2.20
2019-05-15T11:50:56.481Z,1.90
2019-05-15T11:52:00.393Z,1.80
2019-05-15T11:52:58.543Z,1.90
2019-05-15T11:53:58.629Z,1.40
2019-05-15T11:54:58.784Z,1.80
2019-05-15T11:55:56.412Z,1.70
2019-05-15T11:56:59.445Z,2.10
2019-05-15T11:57:59.251Z,1.50
2019-05-15T11:58:56.383Z,1.90
2019-05-15T11:59:59.429Z,1.10
2019-05-15T12:00:57.990Z,1.80
2019-05-15T12:01:58.025Z,1.90
2019-05-15T12:02:58.453Z,1.70
2019-05-15T12:03:58.517Z,1.90
2019-05-15T12:04:58.366Z,1.40
2019-05-15T12:05:58.330Z,1.50
2019-05-15T12:07:02.113Z,1.30
2019-05-15T12:07:57.890Z,1.70
2019-05-15T12:08:58.838Z,2.10
2019-05-15T12:09:58.042Z,1.40
2019-05-15T12:10:59.106Z,1.90
2019-05-15T12:11:56.243Z,1.40
2019-05-15T12:12:56.237Z,2.00
2019-05-15T12:13:56.220Z,1.10
2019-05-15T12:14:56.215Z,1.20
2019-05-15T12:15:58.720Z,1.30
2019-05-15T12:17:07.248Z,1.10
2019-05-15T12:17:59.124Z,1.60
2019-05-15T12:18:56.175Z,1.90
2019-05-15T12:20:04.645Z,1.40
2019-05-15T12:20:59.535Z,1.40
2019-05-15T12:21:59.597Z,1.40
2019-05-15T12:22:56.135Z,1.20
2019-05-15T12:23:58.951Z,1.40
2019-05-15T12:24:56.127Z,0.90
2019-05-15T12:25:59.330Z,1.40
2019-05-15T12:26:56.100Z,1.10
2019-05-15T12:27:56.103Z,1.60
2019-05-15T12:28:58.954Z,1.30
2019-05-15T12:29:56.050Z,1.70
2019-05-15T12:31:59.050Z,1.40
2019-05-15T12:33:00.210Z,1.50
2019-05-15T12:33:57.705Z,1.40
2019-05-15T12:34:59.781Z,1.60
2019-05-15T12:35:55.984Z,1.30
2019-05-15T12:37:56.981Z,1.00
2019-05-15T12:38:55.972Z,0.90
2019-05-15T12:39:26.031Z,1.20
2019-05-15T12:59:58.260Z,8.30
2019-05-15T13:00:57.734Z,2.80
2019-05-15T13:01:55.739Z,1.90
2019-05-15T13:02:55.700Z,1.60
2019-05-15T13:03:57.851Z,1.80
2019-05-15T13:04:55.670Z,2.00
2019-05-15T13:05:55.664Z,2.10
2019-05-15T13:07:12.236Z,1.90
2019-05-15T13:07:56.637Z,2.20
2019-05-15T13:08:55.633Z,2.00
2019-05-15T13:09:57.846Z,1.90
2019-05-15T13:10:55.614Z,1.90
2019-05-15T13:11:55.594Z,2.10
2019-05-15T13:13:04.148Z,1.80
2019-05-15T13:13:58.917Z,1.90
2019-05-15T13:14:55.564Z,2.10
2019-05-15T13:15:55.560Z,1.90
2019-05-15T13:16:55.544Z,2.00
2019-05-15T13:17:55.591Z,1.90
2019-05-15T13:18:55.521Z,1.70
2019-05-15T13:19:55.516Z,1.50
2019-05-15T13:20:56.830Z,1.80
2019-05-15T13:21:57.833Z,1.60
2019-05-15T13:22:55.487Z,1.60
2019-05-15T13:23:55.467Z,1.70
2019-05-15T13:24:55.455Z,1.60
2019-05-15T13:25:55.451Z,1.50
2019-05-15T13:26:55.432Z,1.90
2019-05-15T13:27:55.423Z,1.80
2019-05-15T13:28:58.106Z,2.00
2019-05-15T13:29:58.080Z,1.40
2019-05-15T13:30:55.391Z,1.40
2019-05-15T13:31:55.379Z,1.60
2019-05-15T13:32:55.367Z,1.40
2019-05-15T13:33:55.369Z,1.50
2019-05-15T13:34:55.345Z,1.50
2019-05-15T13:35:55.333Z,1.50
2019-05-15T13:36:55.326Z,1.50
2019-05-15T13:37:55.319Z,1.60
2019-05-15T13:38:57.689Z,1.60
2019-05-15T13:39:55.309Z,1.70
2019-05-15T13:40:55.293Z,1.50
2019-05-15T13:41:55.271Z,1.20
2019-05-15T13:42:55.256Z,1.70
2019-05-15T13:43:55.246Z,1.80
2019-05-15T13:44:55.241Z,1.90